Dzizak, Uzbekistan
Current Conditions -  °F | °C
As of 9:30 PM on Friday 31 Oct 2014 (Local Time) from UTSS Reporting Station
Broken Clouds Broken Clouds  
Wind Chill: 39°   Ceiling: 20000
Heat Index: 43°   Visibility: 6mi
Dew Point: 37°   Wind: 7mph
Humidity: 81%   Direction: 120°ESE
Pressure: 30.15"   Gusts: NA
Location:  40.12°N, 67.83°E
Report Text: UTSS 311630Z 12003MPS 9999 BKN200 06/03 Q1021 R88/CLRD70 NOSIG
Loading
Personal Weather Stations






























Interactive Weather Map
Tropical Storm Tracking
New forecast layout! Learn more

10-Day Weather Forecast

Advertisements
Track Severe Weather on mobile